sensor_id;sensor_type;location;lat;lon;timestamp;P1;durP1;ratioP1;P2;durP2;ratioP2
74487;SDS011;63019;51.080;13.642;2023-10-08T00:00:51;9.80;;;3.00;;
74487;SDS011;63019;51.080;13.642;2023-10-08T00:01:57;7.97;;;1.85;;
74487;SDS011;63019;51.080;13.642;2023-10-08T00:02:59;18.80;;;2.20;;
74487;SDS011;63019;51.080;13.642;2023-10-08T00:04:07;8.98;;;1.73;;
74487;SDS011;63019;51.080;13.642;2023-10-08T00:05:10;8.50;;;1.55;;
74487;SDS011;63019;51.080;13.642;2023-10-08T00:06:11;8.63;;;2.08;;
74487;SDS011;63019;51.080;13.642;2023-10-08T00:07:14;10.70;;;1.90;;
74487;SDS011;63019;51.080;13.642;2023-10-08T00:08:16;5.63;;;1.98;;
74487;SDS011;63019;51.080;13.642;2023-10-08T00:09:18;9.82;;;2.42;;
74487;SDS011;63019;51.080;13.642;2023-10-08T00:10:22;8.20;;;1.92;;
74487;SDS011;63019;51.080;13.642;2023-10-08T00:11:27;9.57;;;2.00;;
74487;SDS011;63019;51.080;13.642;2023-10-08T00:12:33;7.00;;;1.98;;
74487;SDS011;63019;51.080;13.642;2023-10-08T00:13:35;5.87;;;2.10;;
74487;SDS011;63019;51.080;13.642;2023-10-08T00:14:43;7.40;;;1.67;;
74487;SDS011;63019;51.080;13.642;2023-10-08T00:15:46;9.75;;;2.20;;
74487;SDS011;63019;51.080;13.642;2023-10-08T00:16:56;5.40;;;1.85;;
74487;SDS011;63019;51.080;13.642;2023-10-08T00:17:59;6.60;;;1.98;;
74487;SDS011;63019;51.080;13.642;2023-10-08T00:19:02;7.28;;;1.85;;
74487;SDS011;63019;51.080;13.642;2023-10-08T00:20:10;5.65;;;1.92;;
74487;SDS011;63019;51.080;13.642;2023-10-08T00:21:18;9.40;;;1.92;;
74487;SDS011;63019;51.080;13.642;2023-10-08T00:22:29;7.75;;;1.90;;
74487;SDS011;63019;51.080;13.642;2023-10-08T00:23:38;10.70;;;1.92;;
74487;SDS011;63019;51.080;13.642;2023-10-08T00:24:43;8.63;;;2.07;;
74487;SDS011;63019;51.080;13.642;2023-10-08T00:25:48;4.07;;;1.98;;
74487;SDS011;63019;51.080;13.642;2023-10-08T00:26:52;12.63;;;2.08;;
74487;SDS011;63019;51.080;13.642;2023-10-08T00:27:55;7.53;;;1.92;;
74487;SDS011;63019;51.080;13.642;2023-10-08T00:28:58;11.77;;;1.88;;
74487;SDS011;63019;51.080;13.642;2023-10-08T00:30:02;7.80;;;1.88;;
74487;SDS011;63019;51.080;13.642;2023-10-08T00:31:14;10.02;;;1.80;;
74487;SDS011;63019;51.080;13.642;2023-10-08T00:32:18;8.20;;;1.92;;
74487;SDS011;63019;51.080;13.642;2023-10-08T00:33:23;14.07;;;2.05;;
74487;SDS011;63019;51.080;13.642;2023-10-08T00:34:25;8.95;;;1.90;;
74487;SDS011;63019;51.080;13.642;2023-10-08T00:35:28;8.60;;;1.90;;
74487;SDS011;63019;51.080;13.642;2023-10-08T00:36:30;4.90;;;1.92;;
74487;SDS011;63019;51.080;13.642;2023-10-08T00:37:35;11.15;;;2.17;;
74487;SDS011;63019;51.080;13.642;2023-10-08T00:38:37;7.82;;;1.90;;
74487;SDS011;63019;51.080;13.642;2023-10-08T00:39:45;7.63;;;1.80;;
74487;SDS011;63019;51.080;13.642;2023-10-08T00:40:47;6.40;;;2.10;;
74487;SDS011;63019;51.080;13.642;2023-10-08T00:41:50;8.45;;;2.45;;
74487;SDS011;63019;51.080;13.642;2023-10-08T00:43:00;6.70;;;2.00;;
74487;SDS011;63019;51.080;13.642;2023-10-08T00:44:11;11.15;;;2.00;;
74487;SDS011;63019;51.080;13.642;2023-10-08T00:45:17;6.15;;;1.92;;
74487;SDS011;63019;51.080;13.642;2023-10-08T00:46:20;11.27;;;2.00;;
74487;SDS011;63019;51.080;13.642;2023-10-08T00:47:25;7.30;;;2.00;;
74487;SDS011;63019;51.080;13.642;2023-10-08T00:48:29;5.20;;;1.98;;
74487;SDS011;63019;51.080;13.642;2023-10-08T00:49:37;9.68;;;1.90;;
74487;SDS011;63019;51.080;13.642;2023-10-08T00:50:39;9.43;;;1.75;;
74487;SDS011;63019;51.080;13.642;2023-10-08T00:51:44;10.32;;;2.15;;
74487;SDS011;63019;51.080;13.642;2023-10-08T00:53:00;4.70;;;1.65;;
74487;SDS011;63019;51.080;13.642;2023-10-08T00:54:10;4.50;;;2.03;;
74487;SDS011;63019;51.080;13.642;2023-10-08T00:55:18;6.53;;;2.13;;
74487;SDS011;63019;51.080;13.642;2023-10-08T00:56:29;5.57;;;1.88;;
74487;SDS011;63019;51.080;13.642;2023-10-08T00:57:47;6.57;;;1.77;;
74487;SDS011;63019;51.080;13.642;2023-10-08T00:58:58;6.43;;;2.40;;
74487;SDS011;63019;51.080;13.642;2023-10-08T01:00:04;5.35;;;1.80;;
74487;SDS011;63019;51.080;13.642;2023-10-08T01:01:16;7.07;;;2.03;;
74487;SDS011;63019;51.080;13.642;2023-10-08T01:02:25;9.93;;;2.75;;
74487;SDS011;63019;51.080;13.642;2023-10-08T01:03:30;4.50;;;1.60;;
74487;SDS011;63019;51.080;13.642;2023-10-08T01:04:37;6.53;;;1.77;;
74487;SDS011;63019;51.080;13.642;2023-10-08T01:05:40;8.68;;;2.25;;
74487;SDS011;63019;51.080;13.642;2023-10-08T01:06:50;10.05;;;2.33;;
74487;SDS011;63019;51.080;13.642;2023-10-08T01:08:14;4.38;;;1.67;;
74487;SDS011;63019;51.080;13.642;2023-10-08T01:09:40;7.43;;;2.13;;
74487;SDS011;63019;51.080;13.642;2023-10-08T01:10:44;12.02;;;2.08;;
74487;SDS011;63019;51.080;13.642;2023-10-08T01:12:06;7.20;;;1.80;;
74487;SDS011;63019;51.080;13.642;2023-10-08T01:13:10;5.43;;;1.95;;
74487;SDS011;63019;51.080;13.642;2023-10-08T01:14:22;9.65;;;2.15;;
74487;SDS011;63019;51.080;13.642;2023-10-08T01:15:33;6.65;;;2.20;;
74487;SDS011;63019;51.080;13.642;2023-10-08T01:16:37;4.57;;;2.00;;
74487;SDS011;63019;51.080;13.642;2023-10-08T01:17:42;7.07;;;2.00;;
74487;SDS011;63019;51.080;13.642;2023-10-08T01:19:20;5.13;;;2.13;;
74487;SDS011;63019;51.080;13.642;2023-10-08T01:20:22;4.82;;;1.90;;
74487;SDS011;63019;51.080;13.642;2023-10-08T01:21:38;5.37;;;1.93;;
74487;SDS011;63019;51.080;13.642;2023-10-08T01:22:43;5.75;;;1.90;;
74487;SDS011;63019;51.080;13.642;2023-10-08T01:23:45;8.55;;;1.98;;
74487;SDS011;63019;51.080;13.642;2023-10-08T01:24:49;6.43;;;2.00;;
74487;SDS011;63019;51.080;13.642;2023-10-08T01:25:52;9.73;;;2.72;;
74487;SDS011;63019;51.080;13.642;2023-10-08T01:26:58;8.73;;;2.22;;
74487;SDS011;63019;51.080;13.642;2023-10-08T01:28:00;6.18;;;2.38;;
74487;SDS011;63019;51.080;13.642;2023-10-08T01:29:03;7.97;;;2.38;;
74487;SDS011;63019;51.080;13.642;2023-10-08T01:30:08;5.53;;;2.08;;
74487;SDS011;63019;51.080;13.642;2023-10-08T01:31:19;5.32;;;2.00;;
74487;SDS011;63019;51.080;13.642;2023-10-08T01:32:21;6.90;;;2.40;;
74487;SDS011;63019;51.080;13.642;2023-10-08T01:33:24;10.48;;;2.60;;
74487;SDS011;63019;51.080;13.642;2023-10-08T01:34:29;8.75;;;2.80;;
74487;SDS011;63019;51.080;13.642;2023-10-08T01:35:37;6.95;;;2.60;;
74487;SDS011;63019;51.080;13.642;2023-10-08T01:36:40;9.25;;;3.40;;
74487;SDS011;63019;51.080;13.642;2023-10-08T01:37:46;7.80;;;3.03;;
74487;SDS011;63019;51.080;13.642;2023-10-08T01:38:49;10.50;;;3.80;;
74487;SDS011;63019;51.080;13.642;2023-10-08T01:39:51;13.05;;;4.22;;
74487;SDS011;63019;51.080;13.642;2023-10-08T01:40:53;9.70;;;3.80;;
74487;SDS011;63019;51.080;13.642;2023-10-08T01:41:55;9.55;;;4.30;;
74487;SDS011;63019;51.080;13.642;2023-10-08T01:42:57;8.90;;;4.10;;
74487;SDS011;63019;51.080;13.642;2023-10-08T01:44:02;10.65;;;3.88;;
74487;SDS011;63019;51.080;13.642;2023-10-08T01:45:07;8.98;;;3.33;;
74487;SDS011;63019;51.080;13.642;2023-10-08T01:46:11;6.05;;;2.70;;
74487;SDS011;63019;51.080;13.642;2023-10-08T01:47:14;4.80;;;2.45;;
74487;SDS011;63019;51.080;13.642;2023-10-08T01:48:17;6.47;;;2.30;;
74487;SDS011;63019;51.080;13.642;2023-10-08T01:49:29;5.72;;;1.70;;
74487;SDS011;63019;51.080;13.642;2023-10-08T01:50:35;0.73;;;0.50;;
74487;SDS011;63019;51.080;13.642;2023-10-08T01:51:37;4.60;;;0.60;;
74487;SDS011;63019;51.080;13.642;2023-10-08T01:52:40;1.75;;;0.50;;
74487;SDS011;63019;51.080;13.642;2023-10-08T01:53:42;0.33;;;0.20;;
74487;SDS011;63019;51.080;13.642;2023-10-08T01:54:45;0.85;;;0.30;;
74487;SDS011;63019;51.080;13.642;2023-10-08T01:55:47;0.70;;;0.25;;
74487;SDS011;63019;51.080;13.642;2023-10-08T01:56:53;0.88;;;0.43;;
74487;SDS011;63019;51.080;13.642;2023-10-08T01:57:55;2.38;;;0.30;;
74487;SDS011;63019;51.080;13.642;2023-10-08T01:58:57;2.05;;;0.40;;
74487;SDS011;63019;51.080;13.642;2023-10-08T02:00:02;0.52;;;0.30;;
74487;SDS011;63019;51.080;13.642;2023-10-08T02:01:06;1.77;;;0.10;;
74487;SDS011;63019;51.080;13.642;2023-10-08T02:02:13;0.10;;;0.10;;
74487;SDS011;63019;51.080;13.642;2023-10-08T02:03:17;0.13;;;0.03;;
74487;SDS011;63019;51.080;13.642;2023-10-08T02:04:20;0.00;;;0.00;;
74487;SDS011;63019;51.080;13.642;2023-10-08T02:05:23;0.03;;;0.00;;
74487;SDS011;63019;51.080;13.642;2023-10-08T02:06:26;0.00;;;0.00;;
74487;SDS011;63019;51.080;13.642;2023-10-08T02:07:29;0.00;;;0.00;;
74487;SDS011;63019;51.080;13.642;2023-10-08T02:08:32;0.00;;;0.00;;
74487;SDS011;63019;51.080;13.642;2023-10-08T02:09:34;0.03;;;0.00;;
74487;SDS011;63019;51.080;13.642;2023-10-08T02:10:39;0.45;;;0.00;;
74487;SDS011;63019;51.080;13.642;2023-10-08T02:12:51;0.20;;;0.00;;
74487;SDS011;63019;51.080;13.642;2023-10-08T02:13:53;0.10;;;0.00;;
74487;SDS011;63019;51.080;13.642;2023-10-08T02:14:55;0.00;;;0.00;;
74487;SDS011;63019;51.080;13.642;2023-10-08T02:15:57;1.10;;;0.10;;
74487;SDS011;63019;51.080;13.642;2023-10-08T02:16:59;0.00;;;0.00;;
74487;SDS011;63019;51.080;13.642;2023-10-08T02:18:04;0.00;;;0.00;;
74487;SDS011;63019;51.080;13.642;2023-10-08T02:19:06;0.00;;;0.00;;
74487;SDS011;63019;51.080;13.642;2023-10-08T02:20:12;0.20;;;0.00;;
74487;SDS011;63019;51.080;13.642;2023-10-08T02:21:16;0.00;;;0.00;;
74487;SDS011;63019;51.080;13.642;2023-10-08T02:22:19;0.00;;;0.00;;
74487;SDS011;63019;51.080;13.642;2023-10-08T02:23:21;0.00;;;0.00;;
74487;SDS011;63019;51.080;13.642;2023-10-08T02:24:23;0.00;;;0.00;;
74487;SDS011;63019;51.080;13.642;2023-10-08T02:25:26;0.10;;;0.00;;
74487;SDS011;63019;51.080;13.642;2023-10-08T02:26:29;0.03;;;0.00;;
74487;SDS011;63019;51.080;13.642;2023-10-08T02:27:32;0.00;;;0.00;;
74487;SDS011;63019;51.080;13.642;2023-10-08T02:28:34;0.00;;;0.00;;
74487;SDS011;63019;51.080;13.642;2023-10-08T02:29:38;0.00;;;0.00;;
74487;SDS011;63019;51.080;13.642;2023-10-08T02:30:41;0.00;;;0.00;;
74487;SDS011;63019;51.080;13.642;2023-10-08T02:31:44;0.05;;;0.00;;
74487;SDS011;63019;51.080;13.642;2023-10-08T02:32:46;0.00;;;0.00;;
74487;SDS011;63019;51.080;13.642;2023-10-08T02:33:48;0.10;;;0.00;;
74487;SDS011;63019;51.080;13.642;2023-10-08T02:34:50;0.00;;;0.00;;
74487;SDS011;63019;51.080;13.642;2023-10-08T02:35:52;0.00;;;0.00;;
74487;SDS011;63019;51.080;13.642;2023-10-08T02:36:55;0.95;;;0.00;;
74487;SDS011;63019;51.080;13.642;2023-10-08T02:37:57;0.00;;;0.00;;
74487;SDS011;63019;51.080;13.642;2023-10-08T02:39:00;0.00;;;0.00;;
74487;SDS011;63019;51.080;13.642;2023-10-08T02:40:07;0.00;;;0.00;;
74487;SDS011;63019;51.080;13.642;2023-10-08T02:41:20;0.00;;;0.00;;
74487;SDS011;63019;51.080;13.642;2023-10-08T02:42:25;0.00;;;0.00;;
74487;SDS011;63019;51.080;13.642;2023-10-08T02:43:27;0.00;;;0.00;;
74487;SDS011;63019;51.080;13.642;2023-10-08T02:44:31;0.00;;;0.00;;
74487;SDS011;63019;51.080;13.642;2023-10-08T02:45:33;0.00;;;0.00;;
74487;SDS011;63019;51.080;13.642;2023-10-08T02:46:40;0.00;;;0.00;;
74487;SDS011;63019;51.080;13.642;2023-10-08T02:47:43;0.00;;;0.00;;
74487;SDS011;63019;51.080;13.642;2023-10-08T02:48:48;1.02;;;0.30;;
74487;SDS011;63019;51.080;13.642;2023-10-08T02:49:50;0.10;;;0.00;;
74487;SDS011;63019;51.080;13.642;2023-10-08T02:50:53;0.00;;;0.00;;
74487;SDS011;63019;51.080;13.642;2023-10-08T02:51:55;0.00;;;0.00;;
74487;SDS011;63019;51.080;13.642;2023-10-08T02:52:59;0.20;;;0.00;;
74487;SDS011;63019;51.080;13.642;2023-10-08T02:54:05;0.00;;;0.00;;
74487;SDS011;63019;51.080;13.642;2023-10-08T02:55:07;0.00;;;0.00;;
74487;SDS011;63019;51.080;13.642;2023-10-08T02:56:19;0.00;;;0.00;;
74487;SDS011;63019;51.080;13.642;2023-10-08T02:57:23;0.00;;;0.00;;
74487;SDS011;63019;51.080;13.642;2023-10-08T02:58:25;0.47;;;0.00;;
74487;SDS011;63019;51.080;13.642;2023-10-08T02:59:32;0.00;;;0.00;;
74487;SDS011;63019;51.080;13.642;2023-10-08T03:00:46;0.40;;;0.00;;
74487;SDS011;63019;51.080;13.642;2023-10-08T03:01:49;0.00;;;0.00;;
74487;SDS011;63019;51.080;13.642;2023-10-08T03:02:53;0.45;;;0.00;;
74487;SDS011;63019;51.080;13.642;2023-10-08T03:03:55;0.00;;;0.00;;
74487;SDS011;63019;51.080;13.642;2023-10-08T03:05:05;0.00;;;0.00;;
74487;SDS011;63019;51.080;13.642;2023-10-08T03:06:10;0.00;;;0.00;;
74487;SDS011;63019;51.080;13.642;2023-10-08T03:07:13;2.28;;;0.00;;
74487;SDS011;63019;51.080;13.642;2023-10-08T03:08:33;0.00;;;0.00;;
74487;SDS011;63019;51.080;13.642;2023-10-08T03:09:38;0.00;;;0.00;;
74487;SDS011;63019;51.080;13.642;2023-10-08T03:10:44;1.65;;;0.00;;
74487;SDS011;63019;51.080;13.642;2023-10-08T03:11:47;0.05;;;0.00;;
74487;SDS011;63019;51.080;13.642;2023-10-08T03:12:50;0.25;;;0.00;;
74487;SDS011;63019;51.080;13.642;2023-10-08T03:13:52;0.00;;;0.00;;
74487;SDS011;63019;51.080;13.642;2023-10-08T03:14:54;0.00;;;0.00;;
74487;SDS011;63019;51.080;13.642;2023-10-08T03:16:03;0.00;;;0.00;;
74487;SDS011;63019;51.080;13.642;2023-10-08T03:17:14;0.20;;;0.00;;
74487;SDS011;63019;51.080;13.642;2023-10-08T03:18:21;0.10;;;0.00;;
74487;SDS011;63019;51.080;13.642;2023-10-08T03:19:23;0.10;;;0.00;;
74487;SDS011;63019;51.080;13.642;2023-10-08T03:20:26;0.00;;;0.00;;
74487;SDS011;63019;51.080;13.642;2023-10-08T03:21:41;0.00;;;0.00;;
74487;SDS011;63019;51.080;13.642;2023-10-08T03:22:50;0.00;;;0.00;;
74487;SDS011;63019;51.080;13.642;2023-10-08T03:23:52;0.00;;;0.00;;
74487;SDS011;63019;51.080;13.642;2023-10-08T03:24:58;0.20;;;0.00;;
74487;SDS011;63019;51.080;13.642;2023-10-08T03:26:15;0.00;;;0.00;;
74487;SDS011;63019;51.080;13.642;2023-10-08T03:27:35;0.03;;;0.00;;
74487;SDS011;63019;51.080;13.642;2023-10-08T03:28:43;0.00;;;0.00;;
74487;SDS011;63019;51.080;13.642;2023-10-08T03:29:45;0.00;;;0.00;;
74487;SDS011;63019;51.080;13.642;2023-10-08T03:30:47;0.00;;;0.00;;
74487;SDS011;63019;51.080;13.642;2023-10-08T03:31:51;0.00;;;0.00;;
74487;SDS011;63019;51.080;13.642;2023-10-08T03:32:56;0.00;;;0.00;;
74487;SDS011;63019;51.080;13.642;2023-10-08T03:33:58;0.70;;;0.00;;
74487;SDS011;63019;51.080;13.642;2023-10-08T03:35:00;0.10;;;0.00;;
74487;SDS011;63019;51.080;13.642;2023-10-08T03:36:02;0.45;;;0.00;;
74487;SDS011;63019;51.080;13.642;2023-10-08T03:37:11;0.65;;;0.00;;
74487;SDS011;63019;51.080;13.642;2023-10-08T03:38:21;0.08;;;0.08;;
74487;SDS011;63019;51.080;13.642;2023-10-08T03:39:30;0.95;;;0.10;;
74487;SDS011;63019;51.080;13.642;2023-10-08T03:40:51;0.57;;;0.10;;
74487;SDS011;63019;51.080;13.642;2023-10-08T03:41:58;0.83;;;0.10;;
74487;SDS011;63019;51.080;13.642;2023-10-08T03:43:07;0.80;;;0.17;;
74487;SDS011;63019;51.080;13.642;2023-10-08T03:44:21;1.90;;;0.50;;
74487;SDS011;63019;51.080;13.642;2023-10-08T03:45:26;1.65;;;0.17;;
74487;SDS011;63019;51.080;13.642;2023-10-08T03:46:48;4.35;;;0.35;;
74487;SDS011;63019;51.080;13.642;2023-10-08T03:47:50;3.67;;;0.20;;
74487;SDS011;63019;51.080;13.642;2023-10-08T03:49:07;3.10;;;0.50;;
74487;SDS011;63019;51.080;13.642;2023-10-08T03:50:24;2.92;;;0.52;;
74487;SDS011;63019;51.080;13.642;2023-10-08T03:51:42;5.75;;;0.35;;
74487;SDS011;63019;51.080;13.642;2023-10-08T03:52:44;2.88;;;0.40;;
74487;SDS011;63019;51.080;13.642;2023-10-08T03:53:52;3.97;;;0.30;;
74487;SDS011;63019;51.080;13.642;2023-10-08T03:55:08;1.52;;;0.40;;
74487;SDS011;63019;51.080;13.642;2023-10-08T03:56:20;3.40;;;0.32;;
74487;SDS011;63019;51.080;13.642;2023-10-08T03:57:22;2.65;;;0.40;;
74487;SDS011;63019;51.080;13.642;2023-10-08T03:58:43;3.33;;;0.30;;
74487;SDS011;63019;51.080;13.642;2023-10-08T03:59:48;2.85;;;0.32;;
74487;SDS011;63019;51.080;13.642;2023-10-08T04:00:50;2.92;;;0.32;;
74487;SDS011;63019;51.080;13.642;2023-10-08T04:02:08;1.63;;;0.20;;
74487;SDS011;63019;51.080;13.642;2023-10-08T04:03:17;1.42;;;0.20;;
74487;SDS011;63019;51.080;13.642;2023-10-08T04:04:39;3.47;;;0.40;;
74487;SDS011;63019;51.080;13.642;2023-10-08T04:06:01;4.17;;;0.57;;
74487;SDS011;63019;51.080;13.642;2023-10-08T04:07:17;7.03;;;0.50;;
74487;SDS011;63019;51.080;13.642;2023-10-08T04:08:34;2.65;;;0.50;;
74487;SDS011;63019;51.080;13.642;2023-10-08T04:09:45;2.70;;;0.45;;
74487;SDS011;63019;51.080;13.642;2023-10-08T04:10:51;4.75;;;0.73;;
74487;SDS011;63019;51.080;13.642;2023-10-08T04:12:25;4.82;;;0.80;;
74487;SDS011;63019;51.080;13.642;2023-10-08T04:13:28;6.28;;;0.60;;
74487;SDS011;63019;51.080;13.642;2023-10-08T04:14:30;6.35;;;0.65;;
74487;SDS011;63019;51.080;13.642;2023-10-08T04:15:32;5.00;;;0.60;;
74487;SDS011;63019;51.080;13.642;2023-10-08T04:16:34;3.33;;;0.82;;
74487;SDS011;63019;51.080;13.642;2023-10-08T04:17:39;5.73;;;0.77;;
74487;SDS011;63019;51.080;13.642;2023-10-08T04:18:53;3.35;;;0.65;;
74487;SDS011;63019;51.080;13.642;2023-10-08T04:20:07;4.35;;;0.80;;
74487;SDS011;63019;51.080;13.642;2023-10-08T04:21:29;6.97;;;1.48;;
74487;SDS011;63019;51.080;13.642;2023-10-08T04:22:36;6.72;;;0.70;;
74487;SDS011;63019;51.080;13.642;2023-10-08T04:23:39;7.32;;;0.98;;
74487;SDS011;63019;51.080;13.642;2023-10-08T04:24:41;5.53;;;0.77;;
74487;SDS011;63019;51.080;13.642;2023-10-08T04:25:45;8.32;;;1.10;;
74487;SDS011;63019;51.080;13.642;2023-10-08T04:26:48;3.67;;;0.68;;
74487;SDS011;63019;51.080;13.642;2023-10-08T04:27:52;6.40;;;1.00;;
74487;SDS011;63019;51.080;13.642;2023-10-08T04:28:56;5.40;;;0.50;;
74487;SDS011;63019;51.080;13.642;2023-10-08T04:29:59;4.57;;;0.60;;
74487;SDS011;63019;51.080;13.642;2023-10-08T04:31:01;3.63;;;0.60;;
74487;SDS011;63019;51.080;13.642;2023-10-08T04:32:15;2.47;;;0.60;;
74487;SDS011;63019;51.080;13.642;2023-10-08T04:33:24;6.05;;;0.93;;
74487;SDS011;63019;51.080;13.642;2023-10-08T04:34:26;4.43;;;0.63;;
74487;SDS011;63019;51.080;13.642;2023-10-08T04:35:31;5.03;;;0.80;;
74487;SDS011;63019;51.080;13.642;2023-10-08T04:36:38;3.70;;;0.57;;
74487;SDS011;63019;51.080;13.642;2023-10-08T04:37:40;4.07;;;0.55;;
74487;SDS011;63019;51.080;13.642;2023-10-08T04:38:42;3.53;;;0.80;;
74487;SDS011;63019;51.080;13.642;2023-10-08T04:39:48;5.50;;;0.77;;
74487;SDS011;63019;51.080;13.642;2023-10-08T04:41:00;4.18;;;0.68;;
74487;SDS011;63019;51.080;13.642;2023-10-08T04:42:09;4.07;;;0.60;;
74487;SDS011;63019;51.080;13.642;2023-10-08T04:43:12;3.33;;;0.77;;
74487;SDS011;63019;51.080;13.642;2023-10-08T04:44:16;3.50;;;0.50;;
74487;SDS011;63019;51.080;13.642;2023-10-08T04:45:18;4.57;;;0.70;;
74487;SDS011;63019;51.080;13.642;2023-10-08T04:46:27;3.90;;;0.60;;
74487;SDS011;63019;51.080;13.642;2023-10-08T04:47:48;10.43;;;1.00;;
74487;SDS011;63019;51.080;13.642;2023-10-08T04:48:51;5.38;;;0.60;;
74487;SDS011;63019;51.080;13.642;2023-10-08T04:49:53;4.45;;;0.60;;
74487;SDS011;63019;51.080;13.642;2023-10-08T04:50:55;6.20;;;0.80;;
74487;SDS011;63019;51.080;13.642;2023-10-08T04:52:01;4.32;;;0.55;;
74487;SDS011;63019;51.080;13.642;2023-10-08T04:53:14;7.60;;;0.77;;
74487;SDS011;63019;51.080;13.642;2023-10-08T04:54:17;3.85;;;0.68;;
74487;SDS011;63019;51.080;13.642;2023-10-08T04:55:19;4.60;;;0.70;;
74487;SDS011;63019;51.080;13.642;2023-10-08T04:56:30;4.00;;;0.50;;
74487;SDS011;63019;51.080;13.642;2023-10-08T04:57:34;4.95;;;0.77;;
74487;SDS011;63019;51.080;13.642;2023-10-08T04:58:36;1.75;;;0.40;;
74487;SDS011;63019;51.080;13.642;2023-10-08T04:59:38;4.15;;;0.45;;
74487;SDS011;63019;51.080;13.642;2023-10-08T05:00:40;8.00;;;0.60;;
74487;SDS011;63019;51.080;13.642;2023-10-08T05:01:46;3.83;;;0.60;;
74487;SDS011;63019;51.080;13.642;2023-10-08T05:03:10;2.22;;;0.50;;
74487;SDS011;63019;51.080;13.642;2023-10-08T05:04:16;4.40;;;0.45;;
74487;SDS011;63019;51.080;13.642;2023-10-08T05:05:46;4.20;;;0.60;;
74487;SDS011;63019;51.080;13.642;2023-10-08T05:07:11;2.95;;;0.50;;
74487;SDS011;63019;51.080;13.642;2023-10-08T05:08:22;3.53;;;0.57;;
74487;SDS011;63019;51.080;13.642;2023-10-08T05:09:34;2.83;;;0.60;;
74487;SDS011;63019;51.080;13.642;2023-10-08T05:11:13;2.33;;;0.50;;
74487;SDS011;63019;51.080;13.642;2023-10-08T05:12:39;4.30;;;0.50;;
74487;SDS011;63019;51.080;13.642;2023-10-08T05:14:01;4.97;;;0.65;;
74487;SDS011;63019;51.080;13.642;2023-10-08T05:15:07;3.63;;;0.37;;
74487;SDS011;63019;51.080;13.642;2023-10-08T05:16:16;4.20;;;0.60;;
74487;SDS011;63019;51.080;13.642;2023-10-08T05:17:36;7.70;;;0.75;;
74487;SDS011;63019;51.080;13.642;2023-10-08T05:18:58;6.15;;;0.50;;
74487;SDS011;63019;51.080;13.642;2023-10-08T05:20:26;2.42;;;0.50;;
74487;SDS011;63019;51.080;13.642;2023-10-08T05:21:31;3.10;;;0.50;;
74487;SDS011;63019;51.080;13.642;2023-10-08T05:22:52;2.58;;;0.40;;
74487;SDS011;63019;51.080;13.642;2023-10-08T05:24:12;2.97;;;0.50;;
74487;SDS011;63019;51.080;13.642;2023-10-08T05:25:16;3.45;;;0.95;;
74487;SDS011;63019;51.080;13.642;2023-10-08T05:26:18;3.63;;;0.50;;
74487;SDS011;63019;51.080;13.642;2023-10-08T05:27:32;1.20;;;0.30;;
74487;SDS011;63019;51.080;13.642;2023-10-08T05:28:39;3.05;;;0.30;;
74487;SDS011;63019;51.080;13.642;2023-10-08T05:30:02;1.25;;;0.32;;
74487;SDS011;63019;51.080;13.642;2023-10-08T05:31:17;1.80;;;0.40;;
74487;SDS011;63019;51.080;13.642;2023-10-08T05:32:38;3.75;;;0.60;;
74487;SDS011;63019;51.080;13.642;2023-10-08T05:33:47;1.75;;;0.30;;
74487;SDS011;63019;51.080;13.642;2023-10-08T05:35:08;4.20;;;0.50;;
74487;SDS011;63019;51.080;13.642;2023-10-08T05:36:28;2.83;;;0.40;;
74487;SDS011;63019;51.080;13.642;2023-10-08T05:37:49;2.17;;;0.32;;
74487;SDS011;63019;51.080;13.642;2023-10-08T05:39:03;2.92;;;0.65;;
74487;SDS011;63019;51.080;13.642;2023-10-08T05:40:34;2.23;;;0.40;;
74487;SDS011;63019;51.080;13.642;2023-10-08T05:41:59;1.67;;;0.40;;
74487;SDS011;63019;51.080;13.642;2023-10-08T05:43:18;1.35;;;0.30;;
74487;SDS011;63019;51.080;13.642;2023-10-08T05:44:42;2.28;;;0.20;;
74487;SDS011;63019;51.080;13.642;2023-10-08T05:46:09;3.20;;;0.50;;
74487;SDS011;63019;51.080;13.642;2023-10-08T05:47:25;0.95;;;0.40;;
74487;SDS011;63019;51.080;13.642;2023-10-08T05:48:51;1.58;;;0.10;;
74487;SDS011;63019;51.080;13.642;2023-10-08T05:50:08;2.38;;;0.30;;
74487;SDS011;63019;51.080;13.642;2023-10-08T05:51:19;1.60;;;0.30;;
74487;SDS011;63019;51.080;13.642;2023-10-08T05:52:46;1.58;;;0.40;;
74487;SDS011;63019;51.080;13.642;2023-10-08T05:53:58;2.07;;;0.60;;
74487;SDS011;63019;51.080;13.642;2023-10-08T05:55:00;2.38;;;0.32;;
74487;SDS011;63019;51.080;13.642;2023-10-08T05:56:24;0.98;;;0.25;;
74487;SDS011;63019;51.080;13.642;2023-10-08T05:57:43;1.27;;;0.28;;
74487;SDS011;63019;51.080;13.642;2023-10-08T05:58:53;1.88;;;0.28;;
74487;SDS011;63019;51.080;13.642;2023-10-08T06:00:14;2.08;;;0.40;;
74487;SDS011;63019;51.080;13.642;2023-10-08T06:01:15;0.93;;;0.20;;
74487;SDS011;63019;51.080;13.642;2023-10-08T06:02:37;0.82;;;0.32;;
74487;SDS011;63019;51.080;13.642;2023-10-08T06:04:01;0.77;;;0.25;;
74487;SDS011;63019;51.080;13.642;2023-10-08T06:05:22;3.60;;;0.30;;
74487;SDS011;63019;51.080;13.642;2023-10-08T06:06:25;0.93;;;0.30;;
74487;SDS011;63019;51.080;13.642;2023-10-08T06:07:39;1.50;;;0.40;;
74487;SDS011;63019;51.080;13.642;2023-10-08T06:08:54;1.02;;;0.30;;
74487;SDS011;63019;51.080;13.642;2023-10-08T06:10:12;2.28;;;0.30;;
74487;SDS011;63019;51.080;13.642;2023-10-08T06:11:35;1.15;;;0.30;;
74487;SDS011;63019;51.080;13.642;2023-10-08T06:13:12;1.25;;;0.40;;
74487;SDS011;63019;51.080;13.642;2023-10-08T06:14:18;2.08;;;0.32;;
74487;SDS011;63019;51.080;13.642;2023-10-08T06:16:52;3.05;;;0.45;;
74487;SDS011;63019;51.080;13.642;2023-10-08T06:18:18;0.88;;;0.20;;
74487;SDS011;63019;51.080;13.642;2023-10-08T06:19:21;2.87;;;0.30;;
74487;SDS011;63019;51.080;13.642;2023-10-08T06:20:23;2.38;;;0.40;;
74487;SDS011;63019;51.080;13.642;2023-10-08T06:21:26;3.25;;;0.45;;
74487;SDS011;63019;51.080;13.642;2023-10-08T06:22:28;0.90;;;0.20;;
74487;SDS011;63019;51.080;13.642;2023-10-08T06:23:30;0.77;;;0.40;;
74487;SDS011;63019;51.080;13.642;2023-10-08T06:24:36;1.50;;;0.35;;
74487;SDS011;63019;51.080;13.642;2023-10-08T06:25:40;2.00;;;0.57;;
74487;SDS011;63019;51.080;13.642;2023-10-08T06:26:48;2.15;;;0.47;;
74487;SDS011;63019;51.080;13.642;2023-10-08T06:27:50;1.55;;;0.30;;
74487;SDS011;63019;51.080;13.642;2023-10-08T06:28:57;0.77;;;0.20;;
74487;SDS011;63019;51.080;13.642;2023-10-08T06:30:00;1.37;;;0.27;;
74487;SDS011;63019;51.080;13.642;2023-10-08T06:31:02;1.27;;;0.40;;
74487;SDS011;63019;51.080;13.642;2023-10-08T06:32:13;0.68;;;0.22;;
74487;SDS011;63019;51.080;13.642;2023-10-08T06:33:15;0.68;;;0.20;;
74487;SDS011;63019;51.080;13.642;2023-10-08T06:34:18;1.10;;;0.30;;
74487;SDS011;63019;51.080;13.642;2023-10-08T06:35:22;1.67;;;0.30;;
74487;SDS011;63019;51.080;13.642;2023-10-08T06:36:27;2.42;;;0.28;;
74487;SDS011;63019;51.080;13.642;2023-10-08T06:37:31;1.02;;;0.35;;
74487;SDS011;63019;51.080;13.642;2023-10-08T06:38:36;1.90;;;0.32;;
74487;SDS011;63019;51.080;13.642;2023-10-08T06:39:39;2.20;;;0.30;;
74487;SDS011;63019;51.080;13.642;2023-10-08T06:40:50;1.33;;;0.50;;
74487;SDS011;63019;51.080;13.642;2023-10-08T06:41:54;0.50;;;0.30;;
74487;SDS011;63019;51.080;13.642;2023-10-08T06:42:58;4.07;;;0.50;;
74487;SDS011;63019;51.080;13.642;2023-10-08T06:44:05;2.03;;;0.30;;
74487;SDS011;63019;51.080;13.642;2023-10-08T06:45:07;4.57;;;0.55;;
74487;SDS011;63019;51.080;13.642;2023-10-08T06:46:16;1.10;;;0.45;;